Time;durP1;ratioP1;P1;durP2;ratioP2;P2;SDS_P1;SDS_P2;PMS_P1;PMS_P2;Temp;Humidity;BMP_temperature;BMP_pressure;BME280_temperature;BME280_humidity;BME280_pressure;Samples;Min_cycle;Max_cycle;Signal;HPM_P1;HPM_P2
2021/06/15 00:02:07;;;;;;;8.63;6.20;;;19.60;99.90;;;;;;5035931;28;20178;-80
2021/06/15 00:04:32;;;;;;;9.87;6.60;;;19.60;99.90;;;;;;5035995;28;20789;-80
2021/06/15 00:06:58;;;;;;;9.97;6.57;;;19.50;99.90;;;;;;5035810;28;20556;-80
2021/06/15 00:09:23;;;;;;;11.43;6.50;;;19.50;99.90;;;;;;5035872;28;20242;-80
2021/06/15 00:11:49;;;;;;;9.80;6.63;;;19.50;99.90;;;;;;5035449;28;20214;-80
2021/06/15 00:14:14;;;;;;;10.70;6.33;;;19.50;99.90;;;;;;5035688;28;20181;-80
2021/06/15 00:16:40;;;;;;;9.70;5.97;;;19.40;99.90;;;;;;5035303;28;20214;-80
2021/06/15 00:19:05;;;;;;;8.47;5.77;;;19.40;99.90;;;;;;5035388;28;20220;-80
2021/06/15 00:21:31;;;;;;;12.20;6.53;;;19.30;99.90;;;;;;5035617;28;20593;-80
2021/06/15 00:23:56;;;;;;;7.87;6.47;;;19.30;99.90;;;;;;5052628;28;20182;-80
2021/06/15 00:26:22;;;;;;;9.27;7.00;;;19.20;99.90;;;;;;5035418;28;20236;-80
2021/06/15 00:28:48;;;;;;;8.73;6.43;;;19.20;99.90;;;;;;5035192;28;20243;-80
2021/06/15 00:31:13;;;;;;;13.40;7.00;;;19.10;99.90;;;;;;5035227;28;20183;-80
2021/06/15 00:33:39;;;;;;;8.63;6.50;;;19.10;99.90;;;;;;5035639;28;20225;-80
2021/06/15 00:36:05;;;;;;;9.07;7.27;;;19.00;99.90;;;;;;5035027;28;20210;-80
2021/06/15 00:38:30;;;;;;;9.67;6.13;;;19.00;99.90;;;;;;5052042;28;20610;-80
2021/06/15 00:40:56;;;;;;;11.23;5.87;;;19.00;99.90;;;;;;5035134;28;20646;-80
2021/06/15 00:43:21;;;;;;;9.10;6.30;;;18.90;99.90;;;;;;5035112;28;20528;-80
2021/06/15 00:45:47;;;;;;;7.83;5.70;;;18.90;99.90;;;;;;5052583;28;20209;-79
2021/06/15 00:48:33;;;;;;;7.17;5.37;;;18.90;99.90;;;;;;5035773;28;20210;-80
2021/06/15 00:50:58;;;;;;;9.37;5.80;;;18.80;99.90;;;;;;5036104;28;20210;-80
2021/06/15 00:53:24;;;;;;;9.73;5.77;;;18.80;99.90;;;;;;5035871;28;20210;-80
2021/06/15 00:55:51;;;;;;;9.37;5.90;;;18.70;99.90;;;;;;5035649;28;20194;-80
2021/06/15 00:58:16;;;;;;;9.03;6.30;;;18.70;99.90;;;;;;5035293;28;20194;-80
2021/06/15 01:00:42;;;;;;;12.43;6.20;;;18.60;99.90;;;;;;5051525;28;20182;-80
2021/06/15 01:03:07;;;;;;;8.47;6.23;;;18.60;99.90;;;;;;5035388;28;20175;-79
2021/06/15 01:05:33;;;;;;;8.40;5.73;;;18.60;99.90;;;;;;5034605;28;20187;-80
2021/06/15 01:08:07;;;;;;;8.67;6.00;;;18.50;99.90;;;;;;5033431;28;20570;-80
2021/06/15 01:11:02;;;;;;;7.67;5.80;;;18.50;99.90;;;;;;5034904;28;20174;-80
2021/06/15 01:13:46;;;;;;;8.20;5.97;;;18.40;99.90;;;;;;5050698;28;20195;-80
2021/06/15 01:16:14;;;;;;;11.53;5.30;;;18.40;99.90;;;;;;5035952;28;20209;-79
2021/06/15 01:18:45;;;;;;;8.50;5.70;;;18.40;99.90;;;;;;5050954;28;20222;-80
2021/06/15 01:21:12;;;;;;;8.83;6.00;;;18.30;99.90;;;;;;5017990;28;20190;-80
2021/06/15 01:23:59;;;;;;;9.23;5.70;;;18.30;99.90;;;;;;5034455;28;20175;-80
2021/06/15 01:26:33;;;;;;;6.73;5.20;;;18.30;99.90;;;;;;5034957;28;20179;-80
2021/06/15 01:28:59;;;;;;;7.33;4.90;;;18.20;99.90;;;;;;5050969;28;20214;-80
2021/06/15 01:31:24;;;;;;;8.10;5.10;;;18.20;99.90;;;;;;5050757;28;20214;-80
2021/06/15 01:33:53;;;;;;;9.30;5.07;;;18.20;99.90;;;;;;5050547;28;20236;-80
2021/06/15 01:36:19;;;;;;;10.30;5.40;;;18.10;99.90;;;;;;5034164;28;20195;-79
2021/06/15 01:38:48;;;;;;;10.03;5.27;;;18.10;99.90;;;;;;5034319;28;20614;-79
2021/06/15 01:41:15;;;;;;;6.47;4.87;;;18.10;99.90;;;;;;5034792;28;20182;-80
2021/06/15 01:43:43;;;;;;;8.37;5.03;;;18.00;99.90;;;;;;5034557;28;20206;-79
2021/06/15 01:46:09;;;;;;;7.83;5.27;;;18.00;99.90;;;;;;5034399;28;20183;-80
2021/06/15 01:49:02;;;;;;;7.80;5.27;;;17.90;99.90;;;;;;5034244;28;20201;-80
2021/06/15 01:51:27;;;;;;;6.57;5.17;;;17.80;99.90;;;;;;5036532;28;20171;-80
2021/06/15 01:53:57;;;;;;;8.47;4.93;;;17.80;99.90;;;;;;5033727;28;20316;-79
2021/06/15 01:56:24;;;;;;;6.53;4.50;;;17.80;99.90;;;;;;5034006;28;20571;-79
2021/06/15 01:58:50;;;;;;;8.37;4.80;;;17.70;99.90;;;;;;5033776;28;20198;-80
2021/06/15 02:01:15;;;;;;;8.40;4.60;;;17.70;99.90;;;;;;5033674;28;20668;-80
2021/06/15 02:03:41;;;;;;;6.70;4.63;;;17.70;99.90;;;;;;5033516;28;20179;-79
2021/06/15 02:06:07;;;;;;;8.40;5.20;;;17.60;99.90;;;;;;5033771;28;20190;-80
2021/06/15 02:12:02;;;;;;;8.17;4.50;;;17.50;99.90;;;;;;5034304;28;20691;-80
2021/06/15 02:14:28;;;;;;;8.17;4.93;;;17.50;99.90;;;;;;5033691;28;20191;-80
2021/06/15 02:16:54;;;;;;;6.73;4.97;;;17.50;99.90;;;;;;5033175;28;20624;-79
2021/06/15 02:19:21;;;;;;;7.33;5.10;;;17.50;99.90;;;;;;5032578;28;20183;-79
2021/06/15 02:22:02;;;;;;;6.43;4.80;;;17.40;99.90;;;;;;5033637;28;20186;-79
2021/06/15 02:24:31;;;;;;;8.63;5.40;;;17.50;99.90;;;;;;5034607;28;20333;-80
2021/06/15 02:26:57;;;;;;;7.77;5.20;;;17.50;99.90;;;;;;5033296;28;20183;-80
2021/06/15 02:29:23;;;;;;;8.10;5.33;;;17.40;99.90;;;;;;5032811;28;20552;-80
2021/06/15 02:31:54;;;;;;;9.40;5.77;;;17.40;99.90;;;;;;5033067;28;20670;-79
2021/06/15 02:34:21;;;;;;;8.47;5.53;;;17.40;99.90;;;;;;5034008;28;20174;-80
2021/06/15 02:36:46;;;;;;;10.13;5.33;;;17.40;99.90;;;;;;5033165;28;20198;-80
2021/06/15 02:39:15;;;;;;;10.57;5.70;;;17.30;99.90;;;;;;5032559;28;20225;-80
2021/06/15 02:41:42;;;;;;;9.80;5.40;;;17.30;99.90;;;;;;5033117;28;20175;-80
2021/06/15 02:44:08;;;;;;;8.47;6.07;;;17.20;99.90;;;;;;5017065;28;20175;-79
2021/06/15 02:46:35;;;;;;;9.13;5.70;;;17.20;99.90;;;;;;5033212;28;20599;-79
2021/06/15 02:49:06;;;;;;;9.33;5.87;;;17.20;99.90;;;;;;5033414;28;20194;-80
2021/06/15 02:51:34;;;;;;;8.03;5.70;;;17.20;99.90;;;;;;5033728;28;20171;-79
2021/06/15 02:54:21;;;;;;;7.77;5.80;;;17.10;99.90;;;;;;5032802;28;20186;-80
2021/06/15 02:56:49;;;;;;;9.17;5.77;;;17.10;99.90;;;;;;5034401;28;20280;-79
2021/06/15 02:59:15;;;;;;;11.20;5.83;;;17.00;99.90;;;;;;5032672;28;20630;-80
2021/06/15 03:01:48;;;;;;;10.60;6.00;;;17.00;99.90;;;;;;5032972;28;20171;-80
2021/06/15 03:04:14;;;;;;;10.10;6.30;;;17.00;99.90;;;;;;5049428;28;20175;-80
2021/06/15 03:06:40;;;;;;;8.07;5.80;;;17.00;99.90;;;;;;5032895;28;20729;-80
2021/06/15 03:09:05;;;;;;;8.93;6.67;;;17.00;99.90;;;;;;5032836;28;20230;-81
2021/06/15 03:11:31;;;;;;;10.70;6.10;;;17.00;99.90;;;;;;5032941;28;20197;-80
2021/06/15 03:14:09;;;;;;;13.57;6.80;;;17.00;99.90;;;;;;5032788;28;20517;-80
2021/06/15 03:16:35;;;;;;;10.23;6.47;;;16.90;99.90;;;;;;5034090;28;20224;-79
2021/06/15 03:19:07;;;;;;;10.97;6.57;;;16.90;99.90;;;;;;5032686;28;20678;-80
2021/06/15 03:21:45;;;;;;;10.87;7.27;;;16.90;99.90;;;;;;5032449;28;20175;-80
2021/06/15 03:24:16;;;;;;;11.10;7.30;;;16.90;99.90;;;;;;5032485;28;20177;-79
2021/06/15 03:26:59;;;;;;;11.60;7.47;;;16.80;99.90;;;;;;5033672;28;20179;-80
2021/06/15 03:29:25;;;;;;;11.80;7.40;;;16.80;99.90;;;;;;5033315;28;20661;-80
2021/06/15 03:31:52;;;;;;;11.33;7.17;;;16.80;99.90;;;;;;5017960;28;20215;-79
2021/06/15 03:34:21;;;;;;;9.73;7.37;;;16.80;99.90;;;;;;5019672;28;20207;-80
2021/06/15 03:36:47;;;;;;;9.57;7.30;;;16.90;99.90;;;;;;5019571;28;20206;-80
2021/06/15 03:39:13;;;;;;;15.47;7.03;;;16.90;99.90;;;;;;5019328;28;20198;-80
2021/06/15 03:41:39;;;;;;;12.17;7.10;;;16.80;99.90;;;;;;5036116;28;20170;-79
2021/06/15 03:44:05;;;;;;;12.33;7.77;;;16.80;99.90;;;;;;5019711;28;20194;-80
2021/06/15 03:46:32;;;;;;;12.67;7.00;;;16.80;99.90;;;;;;5037000;28;20266;-79
2021/06/15 03:48:58;;;;;;;10.80;7.37;;;16.80;99.90;;;;;;5037074;28;20201;-79
2021/06/15 03:51:24;;;;;;;11.90;7.17;;;16.80;99.90;;;;;;5020252;28;20619;-79
2021/06/15 03:53:50;;;;;;;11.50;6.70;;;16.80;99.90;;;;;;5015442;28;20207;-79
2021/06/15 03:56:16;;;;;;;12.07;6.90;;;16.80;99.90;;;;;;5013710;28;20239;-79
2021/06/15 03:58:41;;;;;;;10.57;6.63;;;16.80;99.90;;;;;;5035681;28;20198;-80
2021/06/15 04:01:07;;;;;;;10.57;6.50;;;16.80;99.90;;;;;;5019320;28;20178;-80
2021/06/15 04:03:35;;;;;;;10.77;7.00;;;16.80;99.90;;;;;;5035896;28;20183;-80
2021/06/15 04:06:02;;;;;;;11.37;6.60;;;16.80;99.90;;;;;;5019766;28;20191;-80
2021/06/15 04:08:27;;;;;;;10.67;6.93;;;16.80;99.90;;;;;;5018703;28;20753;-80
2021/06/15 04:10:53;;;;;;;10.23;6.83;;;16.90;99.90;;;;;;5035435;28;20211;-81
2021/06/15 04:13:23;;;;;;;10.47;6.57;;;16.90;99.90;;;;;;5034954;28;20274;-81
2021/06/15 04:15:48;;;;;;;10.20;6.80;;;17.00;99.90;;;;;;5017973;28;20629;-81
2021/06/15 04:18:16;;;;;;;11.77;6.73;;;17.00;99.90;;;;;;5043091;23;20233;-74
2021/06/15 04:20:42;;;;;;;10.27;6.83;;;17.10;99.90;;;;;;5037956;28;20167;-74
2021/06/15 04:23:08;;;;;;;10.40;6.87;;;17.10;99.90;;;;;;5053612;28;20171;-74
2021/06/15 04:25:37;;;;;;;9.77;6.53;;;17.10;99.90;;;;;;5037617;28;20212;-74
2021/06/15 04:28:03;;;;;;;11.13;6.47;;;17.20;99.90;;;;;;5034559;28;20203;-74
2021/06/15 04:30:34;;;;;;;10.23;6.53;;;17.20;99.90;;;;;;5001175;28;20179;-74
2021/06/15 04:33:03;;;;;;;8.33;5.80;;;17.30;99.90;;;;;;5018673;28;20228;-74
2021/06/15 04:35:31;;;;;;;10.17;6.43;;;17.40;99.90;;;;;;5035659;28;20252;-74
2021/06/15 04:38:01;;;;;;;10.57;6.47;;;17.40;99.90;;;;;;5017492;28;20191;-74
2021/06/15 04:40:34;;;;;;;12.10;6.47;;;17.50;99.90;;;;;;5033657;28;20171;-74
2021/06/15 04:43:11;;;;;;;9.43;6.23;;;17.60;99.90;;;;;;5033820;28;20673;-74
2021/06/15 04:45:41;;;;;;;9.50;6.10;;;17.60;99.90;;;;;;5034582;28;20175;-75
2021/06/15 04:48:10;;;;;;;12.07;6.10;;;17.70;99.90;;;;;;5016667;28;20682;-77
2021/06/15 04:50:36;;;;;;;10.43;6.20;;;17.80;99.90;;;;;;5016583;28;20185;-73
2021/06/15 04:53:03;;;;;;;10.73;6.40;;;17.70;99.90;;;;;;5032793;28;20179;-74
2021/06/15 04:55:32;;;;;;;8.53;5.90;;;17.70;99.90;;;;;;5016165;28;20214;-74
2021/06/15 04:57:57;;;;;;;11.80;6.83;;;17.80;99.90;;;;;;5016609;28;20221;-75
2021/06/15 05:00:25;;;;;;;7.13;5.47;;;17.70;99.90;;;;;;5015906;28;20212;-75
2021/06/15 05:02:51;;;;;;;10.43;6.57;;;17.70;99.90;;;;;;4999673;28;20183;-73
2021/06/15 05:05:17;;;;;;;13.13;7.27;;;17.80;99.90;;;;;;5015668;28;20205;-75
2021/06/15 05:07:42;;;;;;;9.43;6.60;;;17.80;99.90;;;;;;5015744;28;20198;-74
2021/06/15 05:10:08;;;;;;;13.03;6.80;;;17.80;99.90;;;;;;5032030;28;20178;-74
2021/06/15 05:12:36;;;;;;;12.90;7.27;;;17.80;99.90;;;;;;5016276;28;20764;-74
2021/06/15 05:15:10;;;;;;;10.07;6.97;;;17.90;99.90;;;;;;5016334;28;20560;-74
2021/06/15 05:17:36;;;;;;;11.33;7.30;;;17.90;99.90;;;;;;5032693;28;20198;-74
2021/06/15 05:20:04;;;;;;;11.47;7.87;;;18.00;99.90;;;;;;5032417;28;20201;-74
2021/06/15 05:22:44;;;;;;;16.33;7.50;;;18.10;99.90;;;;;;5016287;28;20190;-74
2021/06/15 05:25:11;;;;;;;12.47;8.43;;;18.20;99.90;;;;;;5032291;28;20192;-74
2021/06/15 05:27:36;;;;;;;13.80;7.83;;;18.40;99.90;;;;;;5029687;28;20221;-74
2021/06/15 05:30:04;;;;;;;10.27;6.80;;;18.50;99.90;;;;;;5030772;28;20649;-74
2021/06/15 05:32:30;;;;;;;13.00;8.10;;;18.50;99.90;;;;;;5014629;28;20179;-75
2021/06/15 05:34:55;;;;;;;15.63;8.43;;;18.50;99.90;;;;;;5030643;28;20183;-75
2021/06/15 05:37:21;;;;;;;12.70;7.80;;;18.50;99.90;;;;;;5029342;28;20967;-75
2021/06/15 05:39:47;;;;;;;14.03;7.70;;;18.50;99.90;;;;;;5028148;28;20189;-75
2021/06/15 05:42:12;;;;;;;13.77;7.87;;;18.70;99.90;;;;;;5012566;28;20189;-76
2021/06/15 05:44:39;;;;;;;11.83;8.20;;;18.90;99.90;;;;;;5020089;28;20183;-74
2021/06/15 05:47:04;;;;;;;11.27;7.20;;;19.20;99.90;;;;;;5031912;28;20194;-74
2021/06/15 05:49:30;;;;;;;11.20;7.27;;;19.70;99.90;;;;;;5015079;28;20210;-75
2021/06/15 05:52:02;;;;;;;9.53;6.30;;;20.00;99.90;;;;;;5031909;28;20175;-74
2021/06/15 05:54:28;;;;;;;9.70;7.03;;;20.20;99.90;;;;;;5015386;28;20187;-74
2021/06/15 05:56:54;;;;;;;11.70;7.07;;;20.30;99.90;;;;;;5031679;28;20210;-75
2021/06/15 05:59:19;;;;;;;9.17;5.77;;;20.50;99.90;;;;;;5031397;28;20677;-75
2021/06/15 06:01:45;;;;;;;11.23;5.97;;;20.60;99.90;;;;;;5031033;28;20186;-75
2021/06/15 06:04:13;;;;;;;8.50;5.63;;;20.60;99.90;;;;;;5032535;28;20546;-75
2021/06/15 06:09:22;;;;;;;9.60;5.57;;;20.60;99.90;;;;;;5030988;28;20264;-74
2021/06/15 06:11:47;;;;;;;10.97;6.03;;;20.90;99.90;;;;;;5031866;28;20262;-75
2021/06/15 06:14:14;;;;;;;8.73;5.53;;;20.80;99.90;;;;;;5028751;28;20245;-74
2021/06/15 06:16:42;;;;;;;11.40;5.67;;;20.50;99.90;;;;;;5012283;28;20211;-74
2021/06/15 06:19:07;;;;;;;9.17;6.00;;;20.10;99.90;;;;;;5012306;28;20219;-74
2021/06/15 06:21:34;;;;;;;12.53;6.77;;;19.90;99.90;;;;;;5012830;28;20180;-74
2021/06/15 06:24:00;;;;;;;9.70;5.60;;;19.90;99.90;;;;;;5012514;28;20185;-74
2021/06/15 06:26:26;;;;;;;8.97;6.17;;;19.90;99.90;;;;;;5012381;28;20184;-74
2021/06/15 06:28:52;;;;;;;10.17;5.73;;;20.00;99.90;;;;;;5013372;28;20210;-74
2021/06/15 06:31:18;;;;;;;10.40;6.10;;;19.90;99.90;;;;;;5023457;28;20182;-75
2021/06/15 06:33:43;;;;;;;7.27;5.63;;;19.70;99.90;;;;;;5031725;28;20179;-74
2021/06/15 06:36:09;;;;;;;14.03;6.70;;;19.50;99.90;;;;;;5028142;28;20421;-75
2021/06/15 06:38:34;;;;;;;14.30;8.07;;;19.50;99.90;;;;;;5011443;28;20265;-74
2021/06/15 06:41:00;;;;;;;10.93;7.33;;;19.40;99.90;;;;;;5011882;28;20187;-75
2021/06/15 06:43:25;;;;;;;11.17;6.93;;;19.30;99.90;;;;;;5011588;28;20184;-75
2021/06/15 06:45:52;;;;;;;10.80;6.83;;;19.10;99.90;;;;;;5011404;28;20179;-75
2021/06/15 06:48:18;;;;;;;14.60;7.77;;;19.00;99.90;;;;;;5017783;28;20206;-74
2021/06/15 06:50:44;;;;;;;12.13;6.80;;;19.00;99.90;;;;;;5014556;28;20193;-75
2021/06/15 06:53:09;;;;;;;10.43;6.23;;;19.00;99.90;;;;;;5031317;28;20703;-74
2021/06/15 06:55:35;;;;;;;8.43;6.90;;;19.00;99.90;;;;;;5031780;28;20670;-75
2021/06/15 06:58:01;;;;;;;9.87;7.20;;;18.90;99.90;;;;;;5032006;28;20578;-74
2021/06/15 07:00:26;;;;;;;9.93;6.77;;;18.90;99.90;;;;;;5027246;28;20194;-73
2021/06/15 07:02:52;;;;;;;10.43;7.23;;;18.70;99.90;;;;;;5011888;28;20176;-75
2021/06/15 07:05:18;;;;;;;12.87;7.53;;;18.70;99.90;;;;;;4995610;28;20722;-72
2021/06/15 07:07:43;;;;;;;13.20;7.37;;;18.80;99.90;;;;;;5016099;28;20686;-73
2021/06/15 07:10:10;;;;;;;13.07;7.50;;;18.70;99.90;;;;;;5015324;28;20576;-73
2021/06/15 07:12:35;;;;;;;9.90;6.87;;;18.70;99.90;;;;;;5015656;28;20262;-74
2021/06/15 07:15:01;;;;;;;12.00;7.07;;;18.70;99.90;;;;;;5013233;28;20225;-74
2021/06/15 07:17:26;;;;;;;10.20;6.97;;;18.80;99.90;;;;;;5034351;28;20183;-73
2021/06/15 07:19:52;;;;;;;12.27;7.23;;;19.00;99.90;;;;;;5017610;28;20197;-73
2021/06/15 07:22:18;;;;;;;7.87;6.30;;;19.10;99.90;;;;;;5034074;28;20210;-74
2021/06/15 07:24:43;;;;;;;10.67;6.43;;;19.00;99.90;;;;;;5034203;28;20210;-73
2021/06/15 07:27:09;;;;;;;11.10;6.50;;;19.10;99.90;;;;;;5034282;28;20186;-74
2021/06/15 07:29:35;;;;;;;10.03;7.03;;;19.10;99.90;;;;;;5033575;28;20202;-73
2021/06/15 07:32:00;;;;;;;8.20;6.00;;;19.10;99.90;;;;;;5034107;28;20237;-73
2021/06/15 07:34:26;;;;;;;11.43;6.40;;;19.20;99.90;;;;;;5033902;28;20182;-73
2021/06/15 07:36:52;;;;;;;10.00;6.67;;;19.30;99.90;;;;;;5033756;28;20348;-73
2021/06/15 07:39:17;;;;;;;9.67;6.23;;;19.40;99.90;;;;;;5034992;28;20206;-73
2021/06/15 07:41:43;;;;;;;9.37;5.87;;;19.50;99.90;;;;;;5033868;28;20167;-73
2021/06/15 07:44:09;;;;;;;8.27;5.80;;;19.30;99.90;;;;;;5033705;28;20183;-73
2021/06/15 07:46:34;;;;;;;11.07;6.07;;;19.20;99.90;;;;;;5034593;28;20510;-73
2021/06/15 07:49:00;;;;;;;10.57;5.90;;;19.10;99.90;;;;;;5033483;28;20218;-73
2021/06/15 07:51:26;;;;;;;7.13;5.17;;;19.10;99.90;;;;;;5033317;28;20270;-73
2021/06/15 07:53:51;;;;;;;8.70;5.77;;;19.00;99.90;;;;;;5033460;28;20291;-73
2021/06/15 07:56:17;;;;;;;7.50;5.40;;;19.00;99.90;;;;;;5033293;28;20230;-73
2021/06/15 07:58:42;;;;;;;7.80;5.47;;;19.00;99.90;;;;;;5033488;28;20229;-73
2021/06/15 08:01:08;;;;;;;8.07;5.53;;;19.10;99.90;;;;;;5033335;28;20175;-73
2021/06/15 08:03:33;;;;;;;11.57;5.83;;;19.00;99.90;;;;;;5034876;28;20780;-73
2021/06/15 08:05:59;;;;;;;8.37;4.97;;;19.10;99.90;;;;;;5034408;28;20184;-73
2021/06/15 08:08:25;;;;;;;6.27;4.33;;;19.10;99.90;;;;;;5034455;28;20209;-73
2021/06/15 08:10:50;;;;;;;7.97;4.40;;;19.30;99.90;;;;;;5033094;28;20183;-75
2021/06/15 08:13:16;;;;;;;9.77;4.37;;;19.50;99.90;;;;;;5016764;28;20654;-73
2021/06/15 08:15:42;;;;;;;8.37;5.37;;;19.60;99.90;;;;;;5032850;28;20202;-73
2021/06/15 08:18:08;;;;;;;8.47;4.40;;;19.80;99.90;;;;;;5032373;28;20216;-73
2021/06/15 08:20:33;;;;;;;9.17;4.70;;;19.90;99.90;;;;;;5016305;28;20182;-73
2021/06/15 08:22:59;;;;;;;9.47;4.70;;;20.00;99.90;;;;;;5034276;28;20175;-73
2021/06/15 08:25:25;;;;;;;10.70;4.70;;;20.00;99.90;;;;;;5032838;28;20178;-73
2021/06/15 08:27:51;;;;;;;6.10;4.30;;;20.10;99.90;;;;;;5032991;28;20203;-74
2021/06/15 08:30:17;;;;;;;7.97;4.30;;;20.30;99.90;;;;;;5032659;28;20556;-73
2021/06/15 08:32:42;;;;;;;7.37;4.20;;;20.40;99.90;;;;;;5032869;28;20187;-73
2021/06/15 08:35:09;;;;;;;5.80;4.53;;;20.40;99.90;;;;;;5032748;28;20193;-73
2021/06/15 08:37:35;;;;;;;8.53;4.30;;;20.40;99.90;;;;;;5032742;28;20196;-73
2021/06/15 08:40:01;;;;;;;8.97;3.77;;;20.30;99.90;;;;;;5032255;28;20206;-73
2021/06/15 08:42:26;;;;;;;9.70;3.67;;;20.20;99.90;;;;;;5033993;28;20187;-73
2021/06/15 08:44:52;;;;;;;6.70;4.77;;;20.40;99.90;;;;;;5033659;28;20186;-73
2021/06/15 08:47:17;;;;;;;5.33;4.13;;;20.50;99.90;;;;;;5032499;28;20175;-73
2021/06/15 08:49:43;;;;;;;5.77;3.93;;;20.40;99.90;;;;;;5016422;28;20258;-74
2021/06/15 08:52:09;;;;;;;6.43;4.40;;;20.50;99.90;;;;;;5032654;28;20171;-73
2021/06/15 08:54:35;;;;;;;8.40;4.40;;;20.60;99.90;;;;;;5032474;28;20314;-73
2021/06/15 08:57:00;;;;;;;7.80;3.97;;;20.80;99.90;;;;;;5032564;28;20273;-74
2021/06/15 08:59:28;;;;;;;7.80;4.10;;;20.90;99.90;;;;;;5033126;28;20199;-73
2021/06/15 09:02:02;;;;;;;6.87;3.70;;;20.80;99.90;;;;;;5032369;28;20182;-73
2021/06/15 09:04:27;;;;;;;5.73;3.70;;;20.90;99.90;;;;;;5033457;28;20175;-74
2021/06/15 09:06:56;;;;;;;7.07;3.20;;;20.90;99.90;;;;;;5032416;28;20187;-74
2021/06/15 09:09:22;;;;;;;5.30;3.03;;;20.90;99.90;;;;;;5031926;28;20195;-74
2021/06/15 09:11:58;;;;;;;3.73;2.80;;;21.10;99.90;;;;;;5015566;28;20650;-74
2021/06/15 09:14:44;;;;;;;6.50;3.20;;;21.20;99.90;;;;;;5032776;28;20704;-73
2021/06/15 09:17:35;;;;;;;3.63;2.77;;;21.20;99.90;;;;;;5032128;28;20202;-73
2021/06/15 09:20:24;;;;;;;3.47;2.47;;;21.20;99.90;;;;;;5021274;28;20320;-73
2021/06/15 09:23:04;;;;;;;4.63;2.20;;;21.20;99.90;;;;;;5032102;28;20190;-73
2021/06/15 09:25:29;;;;;;;4.47;2.37;;;21.40;99.90;;;;;;5015961;28;20190;-73
2021/06/15 09:27:55;;;;;;;5.13;2.50;;;21.40;99.90;;;;;;5032809;28;20627;-73
2021/06/15 09:30:24;;;;;;;4.40;2.30;;;21.30;99.90;;;;;;5031007;28;20254;-73
2021/06/15 09:32:49;;;;;;;5.37;3.03;;;21.30;99.90;;;;;;5015145;28;20274;-73
2021/06/15 09:35:16;;;;;;;4.93;3.63;;;21.40;99.90;;;;;;5031786;28;20344;-73
2021/06/15 09:37:48;;;;;;;5.33;3.10;;;21.40;99.90;;;;;;5031625;28;20248;-73
2021/06/15 09:40:22;;;;;;;5.83;2.77;;;21.50;99.90;;;;;;5015029;28;20174;-73
2021/06/15 09:43:09;;;;;;;4.50;2.40;;;21.60;99.90;;;;;;5031743;28;20171;-73
2021/06/15 09:45:39;;;;;;;5.87;2.53;;;21.80;99.90;;;;;;5031480;28;20201;-73
2021/06/15 09:48:30;;;;;;;3.50;2.50;;;21.80;99.90;;;;;;5031771;28;20633;-73
2021/06/15 09:51:02;;;;;;;3.77;2.90;;;21.80;99.90;;;;;;5032117;28;20537;-74
2021/06/15 09:53:43;;;;;;;4.87;3.20;;;21.90;99.90;;;;;;5033573;28;20586;-77
2021/06/15 09:56:12;;;;;;;5.07;2.90;;;22.00;99.90;;;;;;5016559;28;20213;-77
2021/06/15 09:58:53;;;;;;;3.10;2.67;;;21.90;99.90;;;;;;5031591;28;20186;-77
2021/06/15 10:01:29;;;;;;;3.17;2.37;;;21.80;99.90;;;;;;5048058;28;20159;-77
2021/06/15 10:04:08;;;;;;;6.90;2.60;;;21.90;99.90;;;;;;5031265;28;20158;-77
2021/06/15 10:06:34;;;;;;;4.10;2.50;;;21.90;99.90;;;;;;5031193;28;20170;-77
2021/06/15 10:09:00;;;;;;;4.13;2.40;;;21.80;99.90;;;;;;5014935;28;20202;-76
2021/06/15 10:11:26;;;;;;;4.10;2.70;;;21.90;99.90;;;;;;5031245;28;20236;-77
2021/06/15 10:13:51;;;;;;;4.40;3.00;;;22.10;99.90;;;;;;5031682;28;20182;-77
2021/06/15 10:16:18;;;;;;;3.83;2.93;;;22.20;99.90;;;;;;5017463;28;20209;-77
2021/06/15 10:18:43;;;;;;;3.63;2.23;;;22.00;99.90;;;;;;5016808;28;20210;-77
2021/06/15 10:21:09;;;;;;;5.63;2.37;;;22.00;99.90;;;;;;5019056;28;20182;-77
2021/06/15 10:23:35;;;;;;;2.80;2.10;;;22.10;99.90;;;;;;5014255;28;20183;-77
2021/06/15 10:26:00;;;;;;;4.13;2.37;;;22.10;99.90;;;;;;4998273;28;20527;-77
2021/06/15 10:28:26;;;;;;;3.23;2.20;;;22.20;99.90;;;;;;5013976;28;20693;-77
2021/06/15 10:30:51;;;;;;;6.60;2.60;;;22.10;99.90;;;;;;5012331;28;20245;-77
2021/06/15 10:33:21;;;;;;;4.20;2.50;;;22.30;99.90;;;;;;5013298;28;20657;-77
2021/06/15 10:35:52;;;;;;;6.17;2.67;;;22.30;99.90;;;;;;4998303;28;20210;-77
2021/06/15 10:38:30;;;;;;;4.07;2.40;;;22.30;99.90;;;;;;5013355;28;20188;-76
2021/06/15 10:41:01;;;;;;;5.27;2.13;;;22.20;99.90;;;;;;5016827;28;20175;-77
2021/06/15 10:43:36;;;;;;;2.13;1.50;;;22.40;99.90;;;;;;5020191;28;20164;-76
2021/06/15 10:46:14;;;;;;;5.13;2.40;;;22.70;99.90;;;;;;5019684;28;20187;-76
2021/06/15 10:48:43;;;;;;;3.70;2.03;;;22.70;99.90;;;;;;5020807;28;20627;-77
2021/06/15 10:51:21;;;;;;;2.90;1.73;;;22.70;99.90;;;;;;5003860;28;20646;-76
2021/06/15 10:53:46;;;;;;;1.57;1.30;;;22.80;99.90;;;;;;5021377;28;20182;-77
2021/06/15 10:56:13;;;;;;;3.63;1.77;;;22.80;99.90;;;;;;5021378;28;20655;-77
2021/06/15 10:58:39;;;;;;;2.93;1.80;;;22.80;99.90;;;;;;5021403;28;20211;-77
2021/06/15 11:01:17;;;;;;;1.97;1.40;;;22.80;99.90;;;;;;5019516;28;20171;-77
2021/06/15 11:03:58;;;;;;;1.57;1.30;;;22.80;99.90;;;;;;5021375;28;20182;-79
2021/06/15 11:06:27;;;;;;;1.53;1.10;;;22.90;99.90;;;;;;5018887;28;20175;-76
2021/06/15 11:09:17;;;;;;;1.70;1.17;;;23.30;99.90;;;;;;5019081;28;20195;-77
2021/06/15 11:11:48;;;;;;;1.73;1.03;;;23.30;99.90;;;;;;5018421;28;20183;-77
2021/06/15 11:14:18;;;;;;;1.50;1.40;;;23.30;99.90;;;;;;5059693;22;20245;-77
2021/06/15 11:16:51;;;;;;;1.67;1.30;;;23.30;99.90;;;;;;5018625;28;20279;-79
2021/06/15 11:19:17;;;;;;;1.60;1.20;;;23.10;99.90;;;;;;5020320;28;20186;-79
2021/06/15 11:22:01;;;;;;;2.53;1.40;;;23.10;99.90;;;;;;5020747;28;20167;-81
2021/06/15 11:24:35;;;;;;;2.73;1.20;;;23.10;99.90;;;;;;5019091;28;20191;-78
2021/06/15 11:27:20;;;;;;;3.80;1.30;;;23.30;99.90;;;;;;5020674;28;20179;-79
2021/06/15 11:29:50;;;;;;;2.03;1.20;;;23.30;99.90;;;;;;5022065;28;20179;-81
2021/06/15 11:32:23;;;;;;;2.17;1.00;;;23.40;99.90;;;;;;5002601;28;20175;-80
2021/06/15 11:34:55;;;;;;;1.80;1.10;;;23.30;99.90;;;;;;5002841;28;20612;-82
2021/06/15 11:37:32;;;;;;;2.13;1.00;;;23.30;99.90;;;;;;5018595;28;20210;-79
2021/06/15 11:40:23;;;;;;;2.50;1.00;;;23.50;99.90;;;;;;5018906;28;20171;-82
2021/06/15 11:42:50;;;;;;;3.00;0.90;;;23.70;99.90;;;;;;5018300;28;20245;-78
2021/06/15 11:45:19;;;;;;;1.20;0.90;;;23.60;99.90;;;;;;5018994;28;20237;-81
2021/06/15 11:47:52;;;;;;;1.10;0.63;;;23.90;99.90;;;;;;5018184;28;20171;-81
2021/06/15 11:50:31;;;;;;;0.83;0.67;;;24.00;99.90;;;;;;5002749;28;20554;-81
2021/06/15 11:53:04;;;;;;;1.93;0.80;;;24.00;99.90;;;;;;5014578;28;20191;-79
2021/06/15 11:55:33;;;;;;;1.27;1.17;;;24.00;99.90;;;;;;4998746;28;20713;-80
2021/06/15 11:58:03;;;;;;;1.57;0.80;;;23.90;99.90;;;;;;4996866;28;20655;-79
2021/06/15 12:00:30;;;;;;;1.67;1.00;;;23.80;99.90;;;;;;5014026;28;20183;-79
2021/06/15 12:03:03;;;;;;;3.20;0.90;;;23.80;99.80;;;;;;5014704;28;20568;-80
2021/06/15 12:05:28;;;;;;;1.27;1.10;;;23.80;99.90;;;;;;4998825;28;20241;-82
2021/06/15 12:07:54;;;;;;;2.37;1.00;;;23.60;99.90;;;;;;5014699;28;20829;-81
2021/06/15 12:10:24;;;;;;;3.13;1.00;;;23.60;99.90;;;;;;4998435;28;20234;-81
2021/06/15 12:13:01;;;;;;;1.77;1.00;;;23.60;99.90;;;;;;5015005;28;20214;-80
2021/06/15 12:15:45;;;;;;;3.90;1.20;;;23.50;99.90;;;;;;4995181;28;20379;-81
2021/06/15 12:18:21;;;;;;;2.80;1.10;;;23.50;99.90;;;;;;5012275;28;20726;-82
2021/06/15 12:20:48;;;;;;;2.27;1.17;;;23.70;99.90;;;;;;5028672;28;20175;-82
2021/06/15 12:23:32;;;;;;;1.50;1.10;;;23.80;99.90;;;;;;5014505;28;20633;-80
2021/06/15 12:26:15;;;;;;;3.13;0.70;;;23.80;99.90;;;;;;5028500;28;20187;-80
2021/06/15 12:29:01;;;;;;;1.77;1.00;;;23.60;99.90;;;;;;5030706;28;20180;-79
2021/06/15 12:31:27;;;;;;;3.23;1.03;;;23.60;99.90;;;;;;5017964;28;20219;-80
2021/06/15 12:34:13;;;;;;;1.60;1.10;;;23.70;99.90;;;;;;4991732;28;20192;-79
2021/06/15 12:36:44;;;;;;;1.70;1.00;;;23.80;99.90;;;;;;4996261;28;20196;-80
2021/06/15 12:39:19;;;;;;;2.40;0.83;;;24.00;99.90;;;;;;4993537;28;20187;-79
2021/06/15 12:41:52;;;;;;;2.17;0.60;;;24.00;99.90;;;;;;5005367;28;20279;-79
2021/06/15 12:44:18;;;;;;;1.67;0.80;;;24.10;99.90;;;;;;5003836;28;20203;-78
2021/06/15 12:46:44;;;;;;;2.00;0.90;;;24.10;99.90;;;;;;4994037;28;20188;-79
2021/06/15 12:49:17;;;;;;;1.27;0.70;;;24.10;99.90;;;;;;4989593;28;20184;-80
2021/06/15 12:52:05;;;;;;;2.30;0.80;;;24.20;99.90;;;;;;5005985;28;20315;-79
2021/06/15 12:54:37;;;;;;;1.40;0.77;;;24.20;99.90;;;;;;4997835;28;20223;-80
2021/06/15 12:57:05;;;;;;;2.57;0.70;;;24.20;99.90;;;;;;4994693;28;20214;-79
2021/06/15 12:59:36;;;;;;;1.70;0.63;;;24.20;99.90;;;;;;4988928;28;20177;-78